Saint Joseph, Wisconsin
Current Conditions -  °F | °C
As of 8:10 PM on Friday 26 Dec 2014 (Local Time) from K21D Reporting Station
Light Snow Light Snow  
Wind Chill: 23°   Ceiling: 2200
Heat Index: 30°   Visibility: 3mi
Dew Point: 30°   Wind: 7mph
Humidity: 100%   Direction: 360°N
Pressure: 30.08"   Gusts: NA
Location:  45.07°N, 92.75°W
Report Text: K21D 270210Z AUTO 36006KT 3SM -SN SCT006 BKN022 OVC028 M01/M01 A3008 RMK AO2
Loading
Personal Weather Stations






























Interactive Weather Map New forecast layout! Learn more

10-Day Weather Forecast

Advertisements
Track Severe Weather on mobile